createdAt,value
2018-07-08T00:00:58.903Z,1.60
2018-07-08T00:03:28.230Z,1.50
2018-07-08T00:05:57.678Z,1.30
2018-07-08T00:08:27.196Z,1.67
2018-07-08T00:10:58.370Z,1.50
2018-07-08T00:13:27.670Z,1.30
2018-07-08T00:15:56.923Z,2.33
2018-07-08T00:18:26.618Z,1.53
2018-07-08T00:20:56.585Z,1.50
2018-07-08T00:23:25.945Z,1.83
2018-07-08T00:25:55.194Z,1.40
2018-07-08T00:28:24.432Z,1.50
2018-07-08T00:30:53.714Z,2.10
2018-07-08T00:33:22.878Z,1.67
2018-07-08T00:35:52.238Z,1.50
2018-07-08T00:38:21.475Z,1.63
2018-07-08T00:40:50.719Z,1.50
2018-07-08T00:43:19.986Z,1.90
2018-07-08T00:45:49.207Z,1.70
2018-07-08T00:48:18.463Z,1.60
2018-07-08T00:50:47.929Z,1.57
2018-07-08T00:53:17.277Z,1.50
2018-07-08T00:55:46.618Z,1.83
2018-07-08T00:58:15.823Z,1.60
2018-07-08T01:00:45.278Z,1.80
2018-07-08T01:03:14.514Z,1.50
2018-07-08T01:05:43.735Z,1.80
2018-07-08T01:08:12.991Z,1.57
2018-07-08T01:10:42.342Z,1.93
2018-07-08T01:13:11.636Z,1.90
2018-07-08T01:15:40.931Z,1.67
2018-07-08T01:18:10.203Z,1.60
2018-07-08T01:20:39.441Z,1.90
2018-07-08T01:23:08.716Z,1.73
2018-07-08T01:25:49.066Z,1.67
2018-07-08T01:28:18.273Z,2.57
2018-07-08T01:30:47.672Z,2.03
2018-07-08T01:33:16.869Z,1.80
2018-07-08T01:35:46.219Z,1.60
2018-07-08T01:38:15.475Z,1.60
2018-07-08T01:40:45.616Z,1.73
2018-07-08T01:43:14.916Z,1.40
2018-07-08T01:45:44.215Z,1.90
2018-07-08T01:48:13.522Z,1.87
2018-07-08T01:50:42.826Z,1.70
2018-07-08T01:53:12.193Z,1.80
2018-07-08T01:55:41.552Z,1.53
2018-07-08T01:58:10.932Z,2.13
2018-07-08T02:00:40.330Z,1.67
2018-07-08T02:03:09.906Z,1.70
2018-07-08T02:05:39.344Z,1.80
2018-07-08T02:08:08.710Z,1.87
2018-07-08T02:10:38.294Z,1.93
2018-07-08T02:13:07.550Z,1.63
2018-07-08T02:15:37.112Z,1.90
2018-07-08T02:18:06.449Z,1.63
2018-07-08T02:20:35.858Z,1.87
2018-07-08T02:23:05.147Z,1.87
2018-07-08T02:25:34.470Z,2.00
2018-07-08T02:28:03.930Z,1.70
2018-07-08T02:30:33.178Z,1.73
2018-07-08T02:33:02.503Z,1.97
2018-07-08T02:35:32.369Z,1.60
2018-07-08T02:38:01.652Z,1.67
2018-07-08T02:40:30.861Z,1.80
2018-07-08T02:43:00.040Z,1.60
2018-07-08T02:45:29.258Z,1.83
2018-07-08T02:47:58.447Z,1.87
2018-07-08T02:50:27.789Z,1.73
2018-07-08T02:52:57.044Z,1.70
2018-07-08T02:55:26.272Z,2.27
2018-07-08T02:57:55.585Z,2.00
2018-07-08T03:00:24.847Z,1.83
2018-07-08T03:02:54.103Z,1.67
2018-07-08T03:05:23.349Z,1.43
2018-07-08T03:07:52.703Z,2.10
2018-07-08T03:10:21.970Z,1.53
2018-07-08T03:12:51.263Z,1.53
2018-07-08T03:15:20.534Z,1.83
2018-07-08T03:17:49.785Z,1.77
2018-07-08T03:20:19.048Z,1.90
2018-07-08T03:22:48.369Z,2.03
2018-07-08T03:25:17.731Z,1.87
2018-07-08T03:27:46.973Z,1.77
2018-07-08T03:30:16.252Z,1.63
2018-07-08T03:32:45.603Z,2.03
2018-07-08T03:35:15.031Z,2.00
2018-07-08T03:37:44.291Z,1.80
2018-07-08T03:40:13.591Z,2.00
2018-07-08T03:42:43.137Z,2.00
2018-07-08T03:45:12.345Z,2.03
2018-07-08T03:47:41.603Z,2.03
2018-07-08T03:50:10.902Z,2.10
2018-07-08T03:52:40.176Z,2.00
2018-07-08T03:55:09.486Z,1.90
2018-07-08T03:57:38.786Z,1.90
2018-07-08T04:00:08.093Z,1.80
2018-07-08T04:02:37.392Z,2.20
2018-07-08T04:05:06.696Z,2.13
2018-07-08T04:07:36.010Z,1.80
2018-07-08T04:10:05.290Z,2.10
2018-07-08T04:12:34.601Z,1.90
2018-07-08T04:15:03.861Z,2.10
2018-07-08T04:17:33.292Z,1.90
2018-07-08T04:20:02.674Z,2.10
2018-07-08T04:22:32.022Z,1.93
2018-07-08T04:25:01.278Z,2.07
2018-07-08T04:27:30.483Z,1.80
2018-07-08T04:29:59.652Z,1.90
2018-07-08T04:32:28.890Z,1.67
2018-07-08T04:34:58.131Z,2.07
2018-07-08T04:37:27.383Z,1.97
2018-07-08T04:39:56.691Z,2.10
2018-07-08T04:42:26.001Z,1.73
2018-07-08T04:44:55.342Z,1.70
2018-07-08T04:47:24.719Z,2.70
2018-07-08T04:49:53.950Z,1.63
2018-07-08T04:52:23.507Z,1.80
2018-07-08T04:54:52.871Z,1.77
2018-07-08T04:57:22.310Z,2.07
2018-07-08T04:59:51.556Z,1.83
2018-07-08T05:02:20.797Z,2.10
2018-07-08T05:04:50.274Z,1.83
2018-07-08T05:07:19.817Z,1.80
2018-07-08T05:09:49.181Z,2.30
2018-07-08T05:12:18.582Z,2.23
2018-07-08T05:14:47.810Z,1.80
2018-07-08T05:17:17.126Z,1.80
2018-07-08T05:19:46.398Z,1.90
2018-07-08T05:22:15.618Z,1.90
2018-07-08T05:24:44.883Z,2.00
2018-07-08T05:27:14.110Z,1.63
2018-07-08T05:29:43.423Z,2.33
2018-07-08T05:32:12.842Z,1.70
2018-07-08T05:34:42.107Z,2.00
2018-07-08T05:37:11.737Z,1.50
2018-07-08T05:39:41.002Z,2.00
2018-07-08T05:42:10.229Z,2.30
2018-07-08T05:44:39.424Z,2.10
2018-07-08T05:47:08.743Z,2.40
2018-07-08T05:49:38.092Z,1.93
2018-07-08T05:52:07.335Z,1.67
2018-07-08T05:54:36.752Z,1.53
2018-07-08T05:57:06.250Z,1.70
2018-07-08T05:59:35.492Z,1.83
2018-07-08T06:02:04.843Z,1.70
2018-07-08T06:04:35.571Z,1.80
2018-07-08T06:07:04.979Z,1.60
2018-07-08T06:09:34.253Z,1.50
2018-07-08T06:12:03.494Z,2.40
2018-07-08T06:14:32.832Z,1.50
2018-07-08T06:17:02.083Z,1.70
2018-07-08T06:19:31.366Z,1.60
2018-07-08T06:22:00.685Z,1.60
2018-07-08T06:24:29.941Z,1.70
2018-07-08T06:26:59.167Z,1.63
2018-07-08T06:29:28.420Z,1.60
2018-07-08T06:31:57.737Z,1.90
2018-07-08T06:34:27.080Z,2.03
2018-07-08T06:36:56.304Z,1.37
2018-07-08T06:39:25.575Z,1.30
2018-07-08T06:41:54.817Z,1.30
2018-07-08T06:44:23.984Z,1.43
2018-07-08T06:46:53.270Z,1.67
2018-07-08T06:49:22.493Z,1.40
2018-07-08T06:51:51.855Z,1.30
2018-07-08T06:54:21.713Z,1.63
2018-07-08T06:56:51.143Z,1.43
2018-07-08T06:59:20.494Z,1.63
2018-07-08T07:01:49.779Z,1.40
2018-07-08T07:04:19.297Z,1.40
2018-07-08T07:06:48.707Z,1.03
2018-07-08T07:09:18.048Z,1.33
2018-07-08T07:11:47.379Z,1.40
2018-07-08T07:14:16.635Z,1.30
2018-07-08T07:16:45.883Z,1.70
2018-07-08T07:19:15.105Z,1.20
2018-07-08T07:21:44.466Z,1.70
2018-07-08T07:24:13.694Z,1.20
2018-07-08T07:26:42.974Z,1.10
2018-07-08T07:29:12.218Z,1.03
2018-07-08T07:31:41.453Z,1.10
2018-07-08T07:34:10.716Z,1.20
2018-07-08T07:36:39.956Z,1.50
2018-07-08T07:39:09.185Z,1.50
2018-07-08T07:41:38.473Z,1.07
2018-07-08T07:44:08.109Z,1.10
2018-07-08T07:46:37.428Z,1.20
2018-07-08T07:49:06.927Z,1.57
2018-07-08T07:51:36.402Z,1.10
2018-07-08T07:54:05.605Z,1.10
2018-07-08T07:56:34.920Z,1.20
2018-07-08T07:59:04.220Z,0.90
2018-07-08T08:01:33.499Z,1.00
2018-07-08T08:04:02.837Z,0.90
2018-07-08T08:06:32.078Z,1.20
2018-07-08T08:09:01.327Z,1.20
2018-07-08T08:11:30.695Z,1.00
2018-07-08T08:14:04.434Z,1.07
2018-07-08T08:16:33.793Z,1.30
2018-07-08T08:19:03.708Z,0.97
2018-07-08T08:21:33.008Z,1.60
2018-07-08T08:24:02.258Z,1.37
2018-07-08T08:26:31.682Z,1.42
2018-07-08T08:29:00.954Z,0.80
2018-07-08T08:31:30.234Z,0.90
2018-07-08T08:35:12.522Z,1.10
2018-07-08T08:37:57.456Z,0.90
2018-07-08T08:40:27.503Z,0.90
2018-07-08T08:42:56.668Z,0.73
2018-07-08T08:45:27.334Z,0.90
2018-07-08T08:47:56.567Z,0.80
2018-07-08T08:50:26.030Z,1.17
2018-07-08T08:52:55.355Z,0.93
2018-07-08T08:55:24.767Z,0.70
2018-07-08T08:57:55.335Z,0.90
2018-07-08T09:00:24.630Z,1.00
2018-07-08T09:02:53.956Z,0.77
2018-07-08T09:05:23.237Z,0.80
2018-07-08T09:07:52.464Z,1.20
2018-07-08T09:10:21.727Z,0.87
2018-07-08T09:12:50.965Z,1.00
2018-07-08T09:15:20.219Z,0.93
2018-07-08T09:17:49.477Z,0.83
2018-07-08T09:20:18.811Z,1.00
2018-07-08T09:22:48.112Z,0.77
2018-07-08T09:25:17.926Z,0.90
2018-07-08T09:27:47.224Z,1.00
2018-07-08T09:30:16.518Z,0.60
2018-07-08T09:32:45.823Z,1.00
2018-07-08T09:35:15.924Z,0.90
2018-07-08T09:37:45.091Z,0.97
2018-07-08T09:40:14.458Z,0.80
2018-07-08T09:42:43.831Z,0.93
2018-07-08T09:45:13.166Z,1.10
2018-07-08T09:47:42.422Z,1.00
2018-07-08T09:50:11.647Z,0.80
2018-07-08T09:52:41.088Z,1.03
2018-07-08T09:55:10.331Z,1.10
2018-07-08T09:57:39.806Z,1.00
2018-07-08T10:00:09.063Z,0.80
2018-07-08T10:02:38.331Z,1.30
2018-07-08T10:05:07.803Z,1.10
2018-07-08T10:07:37.149Z,0.90
2018-07-08T10:10:06.486Z,1.13
2018-07-08T10:12:35.766Z,1.00
2018-07-08T10:15:05.063Z,0.80
2018-07-08T10:17:34.924Z,0.90
2018-07-08T10:20:03.938Z,0.83
2018-07-08T10:22:33.022Z,1.20
2018-07-08T10:25:02.007Z,0.87
2018-07-08T10:28:40.688Z,1.10
2018-07-08T10:31:15.062Z,1.03
2018-07-08T10:33:54.439Z,1.00
2018-07-08T10:36:28.450Z,0.80
2018-07-08T10:38:57.966Z,1.40
2018-07-08T10:41:27.356Z,0.70
2018-07-08T10:43:56.824Z,0.97
2018-07-08T10:46:26.619Z,0.80
2018-07-08T10:48:56.192Z,0.70
2018-07-08T10:51:25.916Z,0.80
2018-07-08T10:53:55.828Z,0.60
2018-07-08T10:56:25.375Z,0.80
2018-07-08T10:58:55.272Z,0.90
2018-07-08T11:01:24.780Z,0.90
2018-07-08T11:03:54.284Z,0.93
2018-07-08T11:06:23.743Z,0.60
2018-07-08T11:08:53.364Z,1.63
2018-07-08T11:11:22.870Z,0.83
2018-07-08T11:13:52.313Z,0.90
2018-07-08T11:16:21.967Z,0.83
2018-07-08T11:18:51.424Z,0.60
2018-07-08T11:21:21.065Z,0.80
2018-07-08T11:23:50.468Z,0.50
2018-07-08T11:26:19.971Z,0.50
2018-07-08T11:28:49.456Z,0.60
2018-07-08T11:31:19.102Z,0.80
2018-07-08T11:33:48.554Z,0.77
2018-07-08T11:36:18.095Z,0.80
2018-07-08T11:38:47.556Z,0.70
2018-07-08T11:41:17.105Z,0.70
2018-07-08T11:43:46.805Z,0.77
2018-07-08T11:46:16.321Z,0.60
2018-07-08T11:48:45.793Z,0.70
2018-07-08T11:51:15.265Z,0.67
2018-07-08T11:53:45.030Z,0.70
2018-07-08T11:56:15.105Z,0.60
2018-07-08T11:58:45.416Z,0.90
2018-07-08T12:01:15.441Z,0.60
2018-07-08T12:03:44.991Z,0.60
2018-07-08T12:06:14.651Z,0.80
2018-07-08T12:08:44.137Z,0.50
2018-07-08T12:11:13.743Z,0.90
2018-07-08T12:13:43.188Z,0.50
2018-07-08T12:16:12.749Z,0.63
2018-07-08T12:18:42.112Z,0.70
2018-07-08T12:21:11.490Z,1.30
2018-07-08T12:23:42.643Z,0.50
2018-07-08T12:26:12.456Z,0.80
2018-07-08T12:28:41.827Z,0.70
2018-07-08T12:31:11.262Z,0.60
2018-07-08T12:33:40.632Z,0.70
2018-07-08T12:36:10.456Z,0.60
2018-07-08T12:38:39.916Z,0.50
2018-07-08T12:41:09.445Z,0.50
2018-07-08T12:43:38.896Z,0.80
2018-07-08T12:46:08.055Z,0.60
2018-07-08T12:48:37.492Z,0.50
2018-07-08T12:51:07.072Z,0.80
2018-07-08T12:53:36.698Z,0.67
2018-07-08T12:56:05.993Z,0.70
2018-07-08T12:58:35.309Z,0.80
2018-07-08T13:01:04.585Z,0.70
2018-07-08T13:03:33.838Z,0.50
2018-07-08T13:06:03.299Z,0.67
2018-07-08T13:08:32.511Z,0.60
2018-07-08T13:11:01.882Z,2.30
2018-07-08T13:13:31.058Z,0.70
2018-07-08T13:16:00.368Z,0.80
2018-07-08T13:18:29.691Z,0.83
2018-07-08T13:20:59.091Z,0.80
2018-07-08T13:23:28.269Z,0.80
2018-07-08T13:25:57.606Z,0.70
2018-07-08T13:28:27.007Z,0.93
2018-07-08T13:30:56.407Z,0.90
2018-07-08T13:33:25.922Z,0.90
2018-07-08T13:35:55.206Z,0.60
2018-07-08T13:38:24.466Z,0.83
2018-07-08T13:40:53.711Z,0.70
2018-07-08T13:43:23.081Z,0.63
2018-07-08T13:45:52.383Z,0.80
2018-07-08T13:48:21.570Z,0.83
2018-07-08T13:50:50.888Z,0.87
2018-07-08T13:53:20.082Z,0.87
2018-07-08T13:55:50.383Z,1.20
2018-07-08T13:58:19.585Z,0.60
2018-07-08T14:00:49.251Z,0.90
2018-07-08T14:03:18.494Z,0.90
2018-07-08T14:05:47.658Z,0.70
2018-07-08T14:08:16.917Z,0.90
2018-07-08T14:10:46.484Z,0.97
2018-07-08T14:13:15.687Z,0.93
2018-07-08T14:15:45.042Z,0.93
2018-07-08T14:18:14.285Z,1.00
2018-07-08T14:20:43.651Z,0.80
2018-07-08T14:23:12.974Z,0.70
2018-07-08T14:25:42.277Z,0.80
2018-07-08T14:28:11.493Z,0.70
2018-07-08T14:30:40.823Z,0.80
2018-07-08T14:33:10.034Z,0.90
2018-07-08T14:35:39.333Z,0.70
2018-07-08T14:38:08.586Z,0.90
2018-07-08T14:40:37.978Z,1.20
2018-07-08T14:43:07.231Z,1.20
2018-07-08T14:45:36.644Z,0.60
2018-07-08T14:48:05.934Z,0.70
2018-07-08T14:50:35.185Z,0.87
2018-07-08T14:53:04.639Z,0.80
2018-07-08T14:55:33.915Z,0.80
2018-07-08T14:58:03.151Z,1.07
2018-07-08T15:00:32.418Z,0.90
2018-07-08T15:03:01.855Z,1.03
2018-07-08T15:05:31.214Z,0.70
2018-07-08T15:08:01.008Z,0.60
2018-07-08T15:10:30.574Z,0.70
2018-07-08T15:12:59.966Z,0.70
2018-07-08T15:15:29.306Z,0.60
2018-07-08T15:17:58.683Z,0.50
2018-07-08T15:20:27.946Z,1.23
2018-07-08T15:22:57.189Z,0.73
2018-07-08T15:25:26.466Z,0.50
2018-07-08T15:27:55.772Z,0.60
2018-07-08T15:30:25.066Z,0.50
2018-07-08T15:32:54.387Z,0.70
2018-07-08T15:35:23.609Z,1.30
2018-07-08T15:37:52.903Z,0.70
2018-07-08T15:40:22.146Z,1.37
2018-07-08T15:42:51.690Z,1.50
2018-07-08T15:45:20.982Z,1.10
2018-07-08T15:47:50.384Z,1.07
2018-07-08T15:50:19.670Z,0.90
2018-07-08T15:52:48.998Z,0.80
2018-07-08T15:55:18.370Z,0.67
2018-07-08T15:57:47.595Z,1.20
2018-07-08T16:00:16.885Z,1.27
2018-07-08T16:02:46.571Z,1.00
2018-07-08T16:05:15.779Z,0.80
2018-07-08T16:07:45.122Z,1.10
2018-07-08T16:10:14.393Z,1.00
2018-07-08T16:12:43.696Z,0.90
2018-07-08T16:15:12.997Z,0.80
2018-07-08T16:17:42.603Z,0.77
2018-07-08T16:20:11.897Z,0.80
2018-07-08T16:22:41.221Z,1.00
2018-07-08T16:25:10.493Z,0.73
2018-07-08T16:27:39.749Z,0.63
2018-07-08T16:30:08.970Z,0.60
2018-07-08T16:32:38.413Z,0.60
2018-07-08T16:35:07.856Z,0.60
2018-07-08T16:37:37.113Z,0.73
2018-07-08T16:40:06.467Z,0.60
2018-07-08T16:42:35.711Z,0.60
2018-07-08T16:45:04.958Z,0.47
2018-07-08T16:47:34.301Z,0.77
2018-07-08T16:50:03.590Z,1.00
2018-07-08T16:52:33.005Z,0.70
2018-07-08T16:55:02.295Z,0.90
2018-07-08T16:57:31.729Z,1.07
2018-07-08T17:00:01.021Z,0.90
2018-07-08T17:02:30.451Z,0.70
2018-07-08T17:04:59.562Z,0.63
2018-07-08T17:07:28.913Z,1.07
2018-07-08T17:09:58.273Z,0.50
2018-07-08T17:12:27.544Z,0.87
2018-07-08T17:14:56.771Z,0.90
2018-07-08T17:17:25.761Z,0.90
2018-07-08T17:19:55.907Z,1.13
2018-07-08T17:22:25.510Z,0.67
2018-07-08T17:24:55.135Z,1.00
2018-07-08T17:27:24.567Z,0.73
2018-07-08T17:29:53.963Z,0.80
2018-07-08T17:32:23.266Z,1.00
2018-07-08T17:34:52.526Z,0.70
2018-07-08T17:37:21.765Z,0.80
2018-07-08T17:39:51.103Z,0.50
2018-07-08T17:42:20.518Z,0.90
2018-07-08T17:44:49.924Z,0.70
2018-07-08T17:47:19.287Z,1.17
2018-07-08T17:49:48.558Z,1.00
2018-07-08T17:52:17.875Z,0.97
2018-07-08T17:54:47.163Z,0.60
2018-07-08T17:57:16.573Z,0.70
2018-07-08T17:59:45.823Z,0.50
2018-07-08T18:02:15.083Z,0.70
2018-07-08T18:04:44.457Z,0.70
2018-07-08T18:07:13.790Z,0.80
2018-07-08T18:09:43.034Z,0.90
2018-07-08T18:12:12.377Z,0.60
2018-07-08T18:14:41.624Z,0.80
2018-07-08T18:17:10.870Z,0.60
2018-07-08T18:19:40.255Z,0.90
2018-07-08T18:22:09.463Z,0.80
2018-07-08T18:24:38.789Z,1.00
2018-07-08T18:27:08.054Z,0.80
2018-07-08T18:29:37.386Z,0.97
2018-07-08T18:32:06.862Z,0.83
2018-07-08T18:34:37.105Z,0.70
2018-07-08T18:37:06.362Z,0.80
2018-07-08T18:39:35.740Z,0.90
2018-07-08T18:42:05.351Z,0.53
2018-07-08T18:44:35.128Z,0.70
2018-07-08T18:47:04.810Z,0.70
2018-07-08T18:49:34.894Z,0.70
2018-07-08T18:52:04.118Z,0.60
2018-07-08T18:54:33.472Z,0.90
2018-07-08T18:57:02.734Z,0.77
2018-07-08T18:59:32.333Z,0.50
2018-07-08T19:02:01.535Z,0.90
2018-07-08T19:04:31.253Z,0.73
2018-07-08T19:07:00.530Z,0.70
2018-07-08T19:09:29.758Z,0.90
2018-07-08T19:11:59.022Z,0.60
2018-07-08T19:14:28.362Z,0.87
2018-07-08T19:16:57.681Z,0.73
2018-07-08T19:19:27.071Z,0.70
2018-07-08T19:21:56.355Z,0.60
2018-07-08T19:24:25.598Z,1.20
2018-07-08T19:26:54.750Z,0.80
2018-07-08T19:29:24.184Z,0.70
2018-07-08T19:31:53.535Z,1.00
2018-07-08T19:34:22.771Z,0.80
2018-07-08T19:36:52.020Z,0.87
2018-07-08T19:39:21.282Z,0.73
2018-07-08T19:41:51.028Z,0.90
2018-07-08T19:44:21.216Z,0.87
2018-07-08T19:46:50.681Z,0.80
2018-07-08T19:49:19.922Z,0.93
2018-07-08T19:51:49.263Z,0.87
2018-07-08T19:54:18.626Z,0.77
2018-07-08T19:56:47.896Z,1.00
2018-07-08T19:59:17.132Z,0.60
2018-07-08T20:01:46.374Z,0.77
2018-07-08T20:04:15.608Z,0.80
2018-07-08T20:06:44.758Z,0.80
2018-07-08T20:09:13.909Z,0.87
2018-07-08T20:11:43.142Z,1.10
2018-07-08T20:14:12.524Z,1.00
2018-07-08T20:16:41.808Z,0.80
2018-07-08T20:19:11.216Z,0.80
2018-07-08T20:21:40.990Z,0.90
2018-07-08T20:24:10.242Z,0.77
2018-07-08T20:26:39.481Z,1.00
2018-07-08T20:29:08.622Z,0.87
2018-07-08T20:31:37.874Z,0.80
2018-07-08T20:34:07.102Z,0.90
2018-07-08T20:36:36.363Z,1.00
2018-07-08T20:39:06.902Z,0.90
2018-07-08T20:41:36.657Z,1.77
2018-07-08T20:44:06.082Z,1.10
2018-07-08T20:46:35.434Z,1.13
2018-07-08T20:49:04.676Z,1.00
2018-07-08T20:51:34.167Z,1.20
2018-07-08T20:54:03.469Z,1.17
2018-07-08T20:56:32.773Z,1.43
2018-07-08T20:59:02.192Z,1.00
2018-07-08T21:01:31.544Z,1.20
2018-07-08T21:04:00.990Z,0.97
2018-07-08T21:06:30.353Z,1.07
2018-07-08T21:08:59.594Z,1.00
2018-07-08T21:11:29.866Z,1.10
2018-07-08T21:13:59.220Z,1.67
2018-07-08T21:16:28.507Z,1.20
2018-07-08T21:18:57.831Z,1.20
2018-07-08T21:24:30.398Z,1.17
2018-07-08T21:26:59.697Z,1.10
2018-07-08T21:29:31.283Z,1.10
2018-07-08T21:32:00.595Z,1.30
2018-07-08T21:34:29.976Z,1.40
2018-07-08T21:36:59.286Z,1.10
2018-07-08T21:39:28.549Z,1.30
2018-07-08T21:41:57.845Z,1.30
2018-07-08T21:44:27.244Z,1.27
2018-07-08T21:46:56.510Z,1.10
2018-07-08T21:49:25.730Z,1.17
2018-07-08T21:51:54.915Z,1.57
2018-07-08T21:54:24.162Z,1.33
2018-07-08T21:56:53.695Z,1.20
2018-07-08T21:59:23.054Z,1.40
2018-07-08T22:02:00.237Z,1.20
2018-07-08T22:04:29.245Z,0.90
2018-07-08T22:07:03.325Z,1.43
2018-07-08T22:09:32.305Z,1.03
2018-07-08T22:12:01.324Z,1.27
2018-07-08T22:14:30.328Z,1.50
2018-07-08T22:16:59.491Z,1.37
2018-07-08T22:19:28.886Z,1.30
2018-07-08T22:21:58.077Z,1.40
2018-07-08T22:24:27.558Z,1.37
2018-07-08T22:26:56.916Z,1.43
2018-07-08T22:29:26.250Z,1.13
2018-07-08T22:31:55.594Z,1.00
2018-07-08T22:34:24.913Z,1.40
2018-07-08T22:36:54.197Z,1.20
2018-07-08T22:39:23.466Z,1.50
2018-07-08T22:41:52.895Z,1.13
2018-07-08T22:44:22.161Z,0.90
2018-07-08T22:46:51.486Z,1.10
2018-07-08T22:49:20.723Z,1.13
2018-07-08T22:51:50.111Z,1.27
2018-07-08T22:54:19.444Z,1.40
2018-07-08T22:56:48.736Z,1.30
2018-07-08T22:59:18.049Z,1.63
2018-07-08T23:01:58.094Z,1.63
2018-07-08T23:04:27.395Z,1.37
2018-07-08T23:06:56.695Z,1.40
2018-07-08T23:09:26.014Z,2.23
2018-07-08T23:11:55.373Z,1.40
2018-07-08T23:14:24.708Z,1.20
2018-07-08T23:16:53.976Z,1.10
2018-07-08T23:19:23.299Z,1.17
2018-07-08T23:21:52.595Z,1.43
2018-07-08T23:24:21.889Z,1.30
2018-07-08T23:26:51.426Z,1.30
2018-07-08T23:29:20.774Z,1.40
2018-07-08T23:31:50.171Z,1.43
2018-07-08T23:34:19.513Z,1.30
2018-07-08T23:36:48.947Z,1.37
2018-07-08T23:39:18.203Z,1.20
2018-07-08T23:41:47.626Z,1.70
2018-07-08T23:44:17.014Z,1.40
2018-07-08T23:46:46.553Z,1.33
2018-07-08T23:49:15.830Z,1.30
2018-07-08T23:51:45.234Z,1.27
2018-07-08T23:54:14.797Z,1.30
2018-07-08T23:56:44.126Z,1.50
2018-07-08T23:59:13.286Z,1.40
